Time;durP1;ratioP1;P1;durP2;ratioP2;P2;SDS_P1;SDS_P2;PMS_P1;PMS_P2;Temp;Humidity;BMP_temperature;BMP_pressure;BME280_temperature;BME280_humidity;BME280_pressure;Samples;Min_cycle;Max_cycle;Signal;HPM_P1;HPM_P2
2023/05/19 00:00:14;;;;;;;;;;;8.40;99.90;;;;;;4980742;28;20289;-87
2023/05/19 00:02:42;;;;;;;;;;;8.40;99.90;;;;;;4981423;28;19926;-87
2023/05/19 00:05:09;;;;;;;;;;;8.30;99.90;;;;;;4967680;28;19926;-87
2023/05/19 00:07:37;;;;;;;;;;;8.20;99.90;;;;;;4966483;28;19932;-87
2023/05/19 00:10:02;;;;;;;;;;;8.30;99.90;;;;;;4980801;28;19933;-87
2023/05/19 00:12:28;;;;;;;;;;;8.20;99.90;;;;;;4980891;28;19929;-87
2023/05/19 00:14:54;;;;;;;;;;;8.20;99.90;;;;;;4980766;28;19925;-87
2023/05/19 00:17:20;;;;;;;;;;;10.40;99.90;;;;;;4980795;28;19925;-87
2023/05/19 00:19:45;;;;;;;;;;;8.10;99.90;;;;;;4996920;28;19936;-87
2023/05/19 00:22:11;;;;;;;;;;;8.10;99.90;;;;;;4980530;28;19925;-87
2023/05/19 00:24:39;;;;;;;;;;;8.50;99.90;;;;;;4965589;28;19925;-87
2023/05/19 00:27:05;;;;;;;;;;;8.00;99.90;;;;;;4964697;28;19932;-87
2023/05/19 00:29:30;;;;;;;;;;;8.00;99.90;;;;;;4964561;28;20012;-87
2023/05/19 00:31:56;;;;;;;;;;;8.00;99.90;;;;;;4980959;28;20329;-87
2023/05/19 00:34:22;;;;;;;;;;;8.00;99.90;;;;;;4965383;28;19932;-87
2023/05/19 00:36:47;;;;;;;;;;;8.10;99.90;;;;;;4980911;28;19926;-87
2023/05/19 00:39:13;;;;;;;;;;;7.90;99.90;;;;;;4965111;28;19977;-87
2023/05/19 00:41:39;;;;;;;;;;;7.90;99.90;;;;;;4963941;28;19925;-87
2023/05/19 00:44:05;;;;;;;;;;;7.90;99.90;;;;;;4964565;28;19926;-87
2023/05/19 00:46:31;;;;;;;;;;;7.80;99.90;;;;;;4980346;28;20380;-87
2023/05/19 00:48:57;;;;;;;;;;;7.80;99.90;;;;;;4980690;28;19926;-88
2023/05/19 00:51:24;;;;;;;;;;;7.80;99.90;;;;;;4964954;28;19967;-87
2023/05/19 00:53:51;;;;;;;;;;;7.80;99.90;;;;;;4996240;28;19925;-88
2023/05/19 00:56:17;;;;;;;;;;;7.80;99.90;;;;;;4996697;28;20264;-87
2023/05/19 00:58:44;;;;;;;;;;;7.80;99.90;;;;;;4980545;28;20008;-88
2023/05/19 01:01:10;;;;;;;;;;;7.80;99.90;;;;;;4981363;28;19925;-87
2023/05/19 01:03:36;;;;;;;;;;;7.80;99.90;;;;;;4980648;28;19984;-87
2023/05/19 01:06:04;;;;;;;;;;;7.80;99.90;;;;;;4996833;28;19979;-88
2023/05/19 01:08:33;;;;;;;;;;;7.80;99.90;;;;;;4980646;28;19925;-87
2023/05/19 01:10:59;;;;;;;;;;;7.80;99.90;;;;;;4980320;28;20378;-87
2023/05/19 01:13:28;;;;;;;;;;;7.80;99.90;;;;;;4980345;28;19983;-88
2023/05/19 01:16:00;;;;;;;;;;;7.80;99.90;;;;;;4998760;28;20328;-87
2023/05/19 01:18:34;;;;;;;;;;;8.00;99.90;;;;;;4968836;28;20409;-87
2023/05/19 01:21:30;;;;;;;;;;;7.80;99.90;;;;;;4984176;28;20250;-87
2023/05/19 01:24:21;;;;;;;;;;;7.90;99.90;;;;;;4971326;28;19929;-87
2023/05/19 01:27:10;;;;;;;;;;;7.70;99.90;;;;;;4957853;28;20242;-87
2023/05/19 01:29:54;;;;;;;;;;;7.80;99.90;;;;;;4972587;28;20420;-87
2023/05/19 01:32:22;;;;;;;;;;;11.00;99.90;;;;;;4983700;28;19979;-87
2023/05/19 01:34:49;;;;;;;;;;;7.70;99.90;;;;;;4983730;28;19925;-87
2023/05/19 01:37:16;;;;;;;;;;;7.70;99.90;;;;;;4999727;28;20476;-87
2023/05/19 01:39:43;;;;;;;;;;;7.70;99.90;;;;;;4999390;28;20374;-86
2023/05/19 01:42:09;;;;;;;;;;;7.70;99.90;;;;;;4983507;28;19929;-87
2023/05/19 01:44:35;;;;;;;;;;;7.70;99.90;;;;;;4999496;28;19932;-87
2023/05/19 01:47:03;;;;;;;;;;;7.70;99.90;;;;;;4983406;28;19925;-87
2023/05/19 01:49:29;;;;;;;;;;;7.70;99.90;;;;;;4983090;28;19977;-87
2023/05/19 01:51:55;;;;;;;;;;;7.90;99.90;;;;;;4983554;28;19984;-87
2023/05/19 01:54:20;;;;;;;;;;;7.60;99.90;;;;;;4983530;28;19925;-87
2023/05/19 01:57:05;;;;;;;;;;;7.70;99.90;;;;;;4982918;28;19971;-87
2023/05/19 01:59:49;;;;;;;;;;;8.00;99.90;;;;;;4983796;28;19926;-87
2023/05/19 02:02:20;;;;;;;;;;;7.60;99.90;;;;;;4983741;28;20380;-87
2023/05/19 02:04:54;;;;;;;;;;;7.60;99.90;;;;;;4983373;28;19962;-87
2023/05/19 02:07:49;;;;;;;;;;;7.60;99.90;;;;;;5000000;28;19933;-87
2023/05/19 02:10:21;;;;;;;;;;;10.00;99.90;;;;;;4970317;28;19929;-87
2023/05/19 02:12:51;;;;;;;;;;;7.50;99.90;;;;;;4999326;28;19925;-87
2023/05/19 02:15:20;;;;;;;;;;;7.50;99.90;;;;;;4982656;28;19925;-87
2023/05/19 02:17:47;;;;;;;;;;;7.50;99.90;;;;;;4998911;28;19936;-87
2023/05/19 02:20:13;;;;;;;;;;;7.50;99.90;;;;;;4966811;28;20028;-88
2023/05/19 02:22:39;;;;;;;;;;;7.40;99.90;;;;;;4982787;28;19932;-87
2023/05/19 02:25:05;;;;;;;;;;;7.50;99.90;;;;;;4998823;28;19991;-87
2023/05/19 02:27:31;;;;;;;;;;;7.40;99.90;;;;;;4998544;28;20012;-87
2023/05/19 02:29:57;;;;;;;;;;;7.60;99.90;;;;;;4998883;28;20292;-87
2023/05/19 02:32:22;;;;;;;;;;;7.30;99.90;;;;;;4966436;28;19926;-87
2023/05/19 02:34:48;;;;;;;;;;;7.30;99.90;;;;;;4982517;28;19925;-86
2023/05/19 02:37:14;;;;;;;;;;;7.50;99.90;;;;;;4982613;28;20012;-87
2023/05/19 02:39:40;;;;;;;;;;;7.40;99.90;;;;;;4982601;28;19929;-88
2023/05/19 02:42:06;;;;;;;;;;;7.60;99.90;;;;;;4967145;28;19930;-87
2023/05/19 02:44:34;;;;;;;;;;;7.40;99.90;;;;;;4982857;28;20440;-87
2023/05/19 02:47:00;;;;;;;;;;;7.30;99.90;;;;;;4966882;28;19980;-87
2023/05/19 02:49:29;;;;;;;;;;;7.30;99.90;;;;;;4982117;28;19973;-87
2023/05/19 02:51:57;;;;;;;;;;;7.50;99.90;;;;;;4998488;28;19926;-87
2023/05/19 02:54:23;;;;;;;;;;;7.60;99.90;;;;;;4965417;28;19926;-87
2023/05/19 02:56:49;;;;;;;;;;;7.70;99.90;;;;;;4982104;28;19925;-87
2023/05/19 02:59:14;;;;;;;;;;;7.40;99.90;;;;;;4982046;28;19925;-87
2023/05/19 03:01:40;;;;;;;;;;;7.70;99.90;;;;;;4982938;28;19948;-87
2023/05/19 03:04:08;;;;;;;;;;;7.30;99.90;;;;;;4981959;28;20378;-88
2023/05/19 03:06:35;;;;;;;;;;;7.30;99.90;;;;;;4998120;28;19926;-87
2023/05/19 03:09:01;;;;;;;;;;;5.60;99.90;;;;;;4981845;28;19933;-87
2023/05/19 03:11:26;;;;;;;;;;;6.60;99.90;;;;;;4982286;28;19926;-88
2023/05/19 03:13:52;;;;;;;;;;;8.70;99.90;;;;;;4997963;28;20028;-88
2023/05/19 03:16:21;;;;;;;;;;;7.30;99.90;;;;;;4981469;28;20254;-88
2023/05/19 03:18:46;;;;;;;;;;;11.20;99.90;;;;;;4965542;28;19925;-87
2023/05/19 03:21:12;;;;;;;;;;;7.40;99.90;;;;;;4965761;28;20269;-89
2023/05/19 03:23:38;;;;;;;;;;;7.40;99.90;;;;;;4981269;28;20393;-87
2023/05/19 03:26:06;;;;;;;;;;;7.40;99.90;;;;;;4981853;28;19933;-87
2023/05/19 03:28:34;;;;;;;;;;;8.30;99.90;;;;;;4982286;28;19925;-87
2023/05/19 03:31:00;;;;;;;;;;;7.50;99.90;;;;;;4997378;28;20284;-87
2023/05/19 03:33:28;;;;;;;;;;;7.40;99.90;;;;;;4981419;28;19926;-87
2023/05/19 03:35:55;;;;;;;;;;;7.50;99.90;;;;;;4965498;28;20250;-88
2023/05/19 03:38:21;;;;;;;;;;;7.80;99.90;;;;;;4997356;28;20358;-87
2023/05/19 03:40:46;;;;;;;;;;;7.40;99.90;;;;;;4964861;28;19932;-88
2023/05/19 03:43:12;;;;;;;;;;;7.40;99.90;;;;;;4981584;28;19925;-87
2023/05/19 03:45:38;;;;;;;;;;;7.40;99.90;;;;;;4997405;28;19972;-87
2023/05/19 03:48:03;;;;;;;;;;;7.40;99.90;;;;;;4964788;28;19925;-88
2023/05/19 03:50:30;;;;;;;;;;;7.40;99.90;;;;;;4980944;28;19933;-88
2023/05/19 03:52:56;;;;;;;;;;;7.40;99.90;;;;;;4997238;28;19929;-87
2023/05/19 03:55:21;;;;;;;;;;;7.40;99.90;;;;;;4965024;28;20289;-88
2023/05/19 03:57:47;;;;;;;;;;;7.40;99.90;;;;;;4964959;28;19925;-87
2023/05/19 04:00:13;;;;;;;;;;;7.40;99.90;;;;;;4964996;28;19925;-87
2023/05/19 04:02:39;;;;;;;;;;;7.30;99.90;;;;;;4965735;28;20031;-87
2023/05/19 04:05:05;;;;;;;;;;;7.40;99.90;;;;;;4980949;28;19929;-88
2023/05/19 04:07:33;;;;;;;;;;;7.40;99.90;;;;;;4997041;28;19973;-87
2023/05/19 04:09:59;;;;;;;;;;;7.30;99.90;;;;;;4983436;28;19926;-88
2023/05/19 04:12:25;;;;;;;;;;;7.30;99.90;;;;;;4984778;28;19929;-87
2023/05/19 04:14:53;;;;;;;;;;;7.40;99.90;;;;;;4997548;28;19925;-87
2023/05/19 04:17:18;;;;;;;;;;;7.40;99.90;;;;;;4964775;28;19926;-87
2023/05/19 04:19:46;;;;;;;;;;;6.90;99.90;;;;;;4965873;28;19925;-87
2023/05/19 04:22:12;;;;;;;;;;;7.70;99.90;;;;;;5000173;28;19925;-87
2023/05/19 04:24:38;;;;;;;;;;;7.60;99.90;;;;;;4965289;28;19925;-88
2023/05/19 04:27:10;;;;;;;;;;;5.80;99.90;;;;;;4980961;28;19925;-88
2023/05/19 04:29:37;;;;;;;;;;;7.70;99.90;;;;;;4981519;28;19930;-87
2023/05/19 04:32:06;;;;;;;;;;;7.90;99.90;;;;;;4996852;28;19957;-87
2023/05/19 04:34:39;;;;;;;;;;;7.80;99.90;;;;;;4980724;28;19925;-88
2023/05/19 04:37:08;;;;;;;;;;;7.90;99.90;;;;;;4980571;28;20374;-88
2023/05/19 04:39:37;;;;;;;;;;;8.10;99.90;;;;;;4996739;28;20004;-88
2023/05/19 04:42:03;;;;;;;;;;;8.40;99.90;;;;;;4981502;28;20308;-88
2023/05/19 04:44:30;;;;;;;;;;;8.20;99.90;;;;;;4964431;28;20027;-88
2023/05/19 04:46:57;;;;;;;;;;;8.10;99.90;;;;;;4996745;28;19937;-87
2023/05/19 04:49:27;;;;;;;;;;;8.10;99.90;;;;;;4964661;28;19931;-88
2023/05/19 04:51:53;;;;;;;;;;;8.20;99.90;;;;;;5000616;28;19926;-87
2023/05/19 04:54:18;;;;;;;;;;;8.50;99.90;;;;;;5000488;28;19926;-88
2023/05/19 04:56:44;;;;;;;;;;;9.40;99.90;;;;;;4984243;28;19925;-87
2023/05/19 04:59:10;;;;;;;;;;;8.20;99.90;;;;;;4983878;28;19929;-87
2023/05/19 05:01:39;;;;;;;;;;;8.20;99.90;;;;;;4985015;28;19929;-87
2023/05/19 05:04:04;;;;;;;;;;;7.20;99.90;;;;;;4983163;28;19984;-88
2023/05/19 05:06:30;;;;;;;;;;;8.40;99.90;;;;;;4984383;28;19929;-87
2023/05/19 05:08:56;;;;;;;;;;;8.40;99.90;;;;;;5001086;28;20327;-87
2023/05/19 05:11:22;;;;;;;;;;;8.50;99.90;;;;;;4983790;28;20384;-87
2023/05/19 05:13:47;;;;;;;;;;;8.50;99.90;;;;;;4968569;28;19932;-87
2023/05/19 05:16:13;;;;;;;;;;;7.90;99.90;;;;;;4999744;28;19925;-88
2023/05/19 05:18:42;;;;;;;;;;;8.60;99.90;;;;;;4999941;28;19930;-88
2023/05/19 05:21:11;;;;;;;;;;;8.70;99.90;;;;;;4983844;28;19934;-89
2023/05/19 05:23:36;;;;;;;;;;;8.70;99.90;;;;;;4968133;28;20370;-88
2023/05/19 05:26:08;;;;;;;;;;;8.80;99.90;;;;;;4967968;28;20064;-88
2023/05/19 05:28:36;;;;;;;;;;;9.30;99.90;;;;;;4984008;28;19968;-88
2023/05/19 05:31:02;;;;;;;;;;;8.90;99.90;;;;;;4967259;28;19925;-87
2023/05/19 05:33:30;;;;;;;;;;;9.10;99.90;;;;;;4999583;28;20341;-88
2023/05/19 05:35:55;;;;;;;;;;;9.10;99.90;;;;;;5000011;28;19988;-88
2023/05/19 05:38:21;;;;;;;;;;;9.70;99.90;;;;;;4967362;28;19925;-88
2023/05/19 05:40:47;;;;;;;;;;;9.40;99.90;;;;;;4983147;28;19925;-87
2023/05/19 05:43:12;;;;;;;;;;;9.20;99.90;;;;;;4983154;28;19925;-88
2023/05/19 05:45:38;;;;;;;;;;;9.20;99.90;;;;;;4967643;28;19973;-87
2023/05/19 05:48:04;;;;;;;;;;;9.30;99.90;;;;;;4984115;28;19926;-88
2023/05/19 05:50:30;;;;;;;;;;;9.30;99.90;;;;;;4983040;28;19972;-87
2023/05/19 05:52:58;;;;;;;;;;;9.40;99.90;;;;;;4983007;28;19929;-88
2023/05/19 05:55:25;;;;;;;;;;;9.50;99.90;;;;;;4983133;28;19932;-88
2023/05/19 05:57:51;;;;;;;;;;;10.00;99.90;;;;;;4983491;28;19947;-88
2023/05/19 06:00:17;;;;;;;;;;;10.00;99.90;;;;;;4967600;28;19925;-88
2023/05/19 06:02:45;;;;;;;;;;;9.60;99.90;;;;;;4983068;28;19976;-88
2023/05/19 06:05:11;;;;;;;;;;;9.70;99.90;;;;;;4982545;28;19980;-87
2023/05/19 06:07:42;;;;;;;;;;;9.80;99.90;;;;;;4983356;28;19930;-88
2023/05/19 06:10:08;;;;;;;;;;;9.60;99.90;;;;;;4998971;28;19925;-89
2023/05/19 06:12:34;;;;;;;;;;;9.80;99.90;;;;;;4983143;28;19980;-86
2023/05/19 06:15:01;;;;;;;;;;;10.00;99.90;;;;;;4998723;28;19932;-86
2023/05/19 06:17:27;;;;;;;;;;;10.40;99.90;;;;;;4983303;28;19932;-87
2023/05/19 06:19:55;;;;;;;;;;;10.10;99.90;;;;;;4982929;28;19925;-87
2023/05/19 06:22:21;;;;;;;;;;;10.10;99.90;;;;;;4999226;28;19948;-88
2023/05/19 06:24:47;;;;;;;;;;;10.40;99.90;;;;;;4983833;28;19925;-87
2023/05/19 06:27:13;;;;;;;;;;;10.20;99.90;;;;;;4999753;28;20342;-88
2023/05/19 06:29:38;;;;;;;;;;;10.30;99.90;;;;;;4982637;28;19965;-87
2023/05/19 06:32:06;;;;;;;;;;;11.10;99.90;;;;;;4998580;28;20016;-89
2023/05/19 06:34:32;;;;;;;;;;;10.20;99.90;;;;;;4982684;28;19988;-87
2023/05/19 06:37:01;;;;;;;;;;;10.60;99.90;;;;;;4983604;28;19925;-88
2023/05/19 06:39:29;;;;;;;;;;;10.40;99.90;;;;;;4966861;28;20370;-88
2023/05/19 06:41:57;;;;;;;;;;;10.70;99.90;;;;;;4983955;28;19926;-88
2023/05/19 06:44:23;;;;;;;;;;;10.90;99.90;;;;;;4967698;28;19931;-87
2023/05/19 06:46:49;;;;;;;;;;;13.90;99.90;;;;;;4967210;28;19925;-87
2023/05/19 06:49:17;;;;;;;;;;;11.20;99.90;;;;;;4982554;28;19925;-87
2023/05/19 06:51:42;;;;;;;;;;;11.40;99.90;;;;;;4998225;28;20024;-87
2023/05/19 06:54:11;;;;;;;;;;;10.70;99.90;;;;;;4966232;28;20024;-88
2023/05/19 06:56:39;;;;;;;;;;;10.80;99.90;;;;;;4966257;28;19925;-87
2023/05/19 06:59:05;;;;;;;;;;;10.30;99.90;;;;;;4998190;28;19975;-86
2023/05/19 07:01:31;;;;;;;;;;;10.90;99.90;;;;;;4982169;28;20020;-85
2023/05/19 07:03:56;;;;;;;;;;;11.00;99.90;;;;;;4965990;28;19926;-86
2023/05/19 07:06:22;;;;;;;;;;;11.10;99.90;;;;;;4998147;28;20015;-85
2023/05/19 07:08:48;;;;;;;;;;;11.20;99.90;;;;;;4965829;28;19977;-85
2023/05/19 07:11:14;;;;;;;;;;;11.20;99.90;;;;;;4981571;28;19926;-85
2023/05/19 07:13:39;;;;;;;;;;;9.40;99.90;;;;;;4981182;28;19980;-85
2023/05/19 07:16:05;;;;;;;;;;;11.70;99.90;;;;;;4981529;28;19929;-85
2023/05/19 07:18:31;;;;;;;;;;;11.40;99.90;;;;;;4981979;28;19926;-85
2023/05/19 07:20:57;;;;;;;;;;;11.40;99.90;;;;;;4998674;28;20246;-85
2023/05/19 07:23:22;;;;;;;;;;;11.90;99.90;;;;;;4997817;28;19925;-86
2023/05/19 07:25:48;;;;;;;;;;;10.00;99.90;;;;;;4982402;28;19931;-85
2023/05/19 07:28:14;;;;;;;;;;;11.70;99.90;;;;;;4998567;28;19949;-85
2023/05/19 07:30:40;;;;;;;;;;;11.60;99.90;;;;;;4981101;28;19953;-87
2023/05/19 07:33:05;;;;;;;;;;;11.80;99.90;;;;;;4964887;28;19988;-87
2023/05/19 07:35:31;;;;;;;;;;;15.40;99.90;;;;;;4981620;28;19976;-87
2023/05/19 07:37:57;;;;;;;;;;;12.00;99.90;;;;;;4981297;28;19992;-87
2023/05/19 07:40:22;;;;;;;;;;;12.00;99.90;;;;;;4981649;28;19925;-86
2023/05/19 07:42:48;;;;;;;;;;;11.70;99.90;;;;;;4981400;28;19979;-88
2023/05/19 07:45:17;;;;;;;;;;;12.30;99.90;;;;;;4997775;28;19933;-89
2023/05/19 07:47:42;;;;;;;;;;;12.80;99.90;;;;;;4965108;28;19926;-87
2023/05/19 07:50:08;;;;;;;;;;;12.20;99.90;;;;;;4997183;28;19933;-87
2023/05/19 07:52:33;;;;;;;;;;;12.30;99.90;;;;;;4965266;28;19976;-87
2023/05/19 07:54:59;;;;;;;;;;;12.40;99.90;;;;;;4998103;28;19933;-87
2023/05/19 07:57:25;;;;;;;;;;;12.40;99.90;;;;;;4997755;28;19936;-87
2023/05/19 07:59:50;;;;;;;;;;;12.50;99.90;;;;;;4981804;28;19932;-86
2023/05/19 08:02:16;;;;;;;;;;;12.40;99.90;;;;;;4997804;28;19925;-86
2023/05/19 08:04:49;;;;;;;;;;;12.50;99.90;;;;;;4964837;28;19933;-87
2023/05/19 08:07:15;;;;;;;;;;;12.70;99.90;;;;;;4997025;28;19929;-86
2023/05/19 08:09:40;;;;;;;;;;;12.70;99.90;;;;;;4980832;28;19925;-86
2023/05/19 08:12:06;;;;;;;;;;;12.80;99.90;;;;;;4997033;28;19926;-86
2023/05/19 08:14:33;;;;;;;;;;;12.80;99.90;;;;;;4996879;28;19925;-87
2023/05/19 08:17:17;;;;;;;;;;;12.90;99.90;;;;;;4980881;28;20250;-86
2023/05/19 08:19:42;;;;;;;;;;;15.50;99.90;;;;;;4980991;28;19930;-86
2023/05/19 08:22:08;;;;;;;;;;;14.20;99.90;;;;;;5013296;28;20369;-86
2023/05/19 08:24:34;;;;;;;;;;;13.10;99.90;;;;;;4984071;28;19926;-87
2023/05/19 08:27:00;;;;;;;;;;;14.20;99.90;;;;;;4969951;28;19925;-86
2023/05/19 08:29:25;;;;;;;;;;;13.30;99.90;;;;;;5018561;28;19952;-87
2023/05/19 08:31:51;;;;;;;;;;;13.50;99.90;;;;;;4984724;28;19925;-87
2023/05/19 08:34:26;;;;;;;;;;;13.60;99.90;;;;;;5000891;28;19949;-85
2023/05/19 08:36:52;;;;;;;;;;;13.60;99.90;;;;;;4986091;28;19988;-84
2023/05/19 08:39:22;;;;;;;;;;;13.80;99.90;;;;;;5001916;28;20023;-85
2023/05/19 08:41:48;;;;;;;;;;;13.70;99.90;;;;;;4969421;28;19929;-85
2023/05/19 08:44:14;;;;;;;;;;;12.10;99.90;;;;;;4984230;28;20273;-84
2023/05/19 08:46:40;;;;;;;;;;;13.60;99.90;;;;;;4984470;28;19925;-84
2023/05/19 08:49:10;;;;;;;;;;;13.80;99.90;;;;;;4968151;28;20016;-85
2023/05/19 08:51:40;;;;;;;;;;;13.80;99.90;;;;;;5000398;28;20424;-84
2023/05/19 08:54:14;;;;;;;;;;;13.80;99.90;;;;;;5000422;28;19929;-85
2023/05/19 08:56:45;;;;;;;;;;;13.80;99.90;;;;;;4985024;28;19926;-84
2023/05/19 08:59:16;;;;;;;;;;;13.90;99.90;;;;;;4984365;28;19980;-85
2023/05/19 09:01:44;;;;;;;;;;;14.00;99.90;;;;;;5001197;28;19931;-84
2023/05/19 09:04:10;;;;;;;;;;;14.00;99.90;;;;;;5000217;28;19929;-85
2023/05/19 09:06:35;;;;;;;;;;;14.20;99.90;;;;;;4983646;28;20355;-85
2023/05/19 09:09:05;;;;;;;;;;;14.20;99.90;;;;;;4983544;28;19925;-85
2023/05/19 09:11:30;;;;;;;;;;;14.40;99.90;;;;;;4983607;28;19926;-85
2023/05/19 09:13:56;;;;;;;;;;;14.60;99.90;;;;;;5000774;28;20413;-84
2023/05/19 09:16:22;;;;;;;;;;;14.60;99.90;;;;;;5015680;28;19948;-85
2023/05/19 09:18:57;;;;;;;;;;;14.50;99.90;;;;;;4984500;28;19932;-87
2023/05/19 09:21:29;;;;;;;;;;;14.60;99.90;;;;;;4983373;28;19932;-87
2023/05/19 09:23:58;;;;;;;;;;;14.80;99.90;;;;;;5000686;28;20027;-86
2023/05/19 09:26:24;;;;;;;;;;;14.80;99.90;;;;;;4999766;28;19933;-85
2023/05/19 09:28:49;;;;;;;;;;;14.90;99.90;;;;;;4984284;28;19926;-85
2023/05/19 09:31:15;;;;;;;;;;;14.80;99.90;;;;;;4999103;28;20035;-87
2023/05/19 09:33:46;;;;;;;;;;;14.80;99.90;;;;;;4984543;28;20021;-86
2023/05/19 09:36:12;;;;;;;;;;;13.00;99.90;;;;;;4999732;28;19933;-87
2023/05/19 09:38:41;;;;;;;;;;;15.10;99.90;;;;;;5000479;28;20306;-86
2023/05/19 09:41:07;;;;;;;;;;;15.20;99.90;;;;;;4983517;28;19925;-88
2023/05/19 09:43:33;;;;;;;;;;;15.00;99.40;;;;;;4999758;28;19929;-85
2023/05/19 09:46:14;;;;;;;;;;;15.00;99.90;;;;;;5000178;28;19976;-86
2023/05/19 09:48:40;;;;;;;;;;;15.10;99.90;;;;;;4999410;28;20273;-88
2023/05/19 09:51:06;;;;;;;;;;;15.50;98.90;;;;;;5014639;28;19930;-85
2023/05/19 09:53:33;;;;;;;;;;;15.40;98.20;;;;;;4983158;28;19933;-85
2023/05/19 09:56:00;;;;;;;;;;;15.30;96.10;;;;;;4983039;28;19925;-86
2023/05/19 09:58:35;;;;;;;;;;;15.30;95.90;;;;;;4983665;28;19925;-85
2023/05/19 10:01:02;;;;;;;;;;;15.20;93.80;;;;;;4982667;28;19980;-85
2023/05/19 10:03:28;;;;;;;;;;;15.20;96.10;;;;;;4998927;28;20381;-88
2023/05/19 10:05:54;;;;;;;;;;;15.30;95.50;;;;;;4982665;28;20452;-85
2023/05/19 10:08:31;;;;;;;;;;;;;;;;;;;;;
2023/05/19 10:11:00;;;;;;;;;;;15.70;94.20;;;;;;4983979;28;19925;-86
2023/05/19 10:13:27;;;;;;;;;;;13.10;90.90;;;;;;4982929;28;19929;-86
2023/05/19 10:16:02;;;;;;;;;;;13.10;90.20;;;;;;4983155;28;19930;-87
2023/05/19 10:18:32;;;;;;;;;;;18.50;87.80;;;;;;4983866;28;19952;-85
2023/05/19 10:20:59;;;;;;;;;;;15.90;86.00;;;;;;4982338;28;19932;-86
2023/05/19 10:23:25;;;;;;;;;;;15.90;86.10;;;;;;4998618;28;19926;-86
2023/05/19 10:25:55;;;;;;;;;;;15.80;85.00;;;;;;4982518;28;19932;-86
2023/05/19 10:28:24;;;;;;;;;;;15.90;87.60;;;;;;4982826;28;19925;-87
2023/05/19 10:30:52;;;;;;;;;;;16.00;87.70;;;;;;4982538;28;20418;-86
2023/05/19 10:33:18;;;;;;;;;;;16.90;88.70;;;;;;4998694;28;20015;-85
2023/05/19 10:36:22;;;;;;;;;;;16.00;84.50;;;;;;4998557;28;19926;-86
2023/05/19 10:38:52;;;;;;;;;;;16.30;79.00;;;;;;4923636;29;19926;-87
2023/05/19 10:41:36;;;;;;;;;;;16.10;81.10;;;;;;4973635;28;19925;-88
2023/05/19 10:44:20;;;;;;;;;;;16.20;83.50;;;;;;4982864;28;19925;-89
2023/05/19 10:46:45;;;;;;;;;;;16.30;84.20;;;;;;4982166;28;19929;-89
2023/05/19 10:49:18;;;;;;;;;;;16.20;80.70;;;;;;4999211;28;20307;-88
2023/05/19 10:51:46;;;;;;;;;;;16.30;80.90;;;;;;4982704;28;19926;-88
2023/05/19 10:54:15;;;;;;;;;;;16.00;82.80;;;;;;4982357;28;19965;-88
2023/05/19 10:56:44;;;;;;;;;;;16.40;79.10;;;;;;4998818;28;19925;-87
2023/05/19 10:59:29;;;;;;;;;;;16.80;79.00;;;;;;4984758;28;19925;-88
2023/05/19 11:01:54;;;;;;;;;;;16.80;76.70;;;;;;4982413;28;19925;-87
2023/05/19 11:04:37;;;;;;;;;;;17.10;80.10;;;;;;4997915;28;20424;-86
2023/05/19 11:07:03;;;;;;;;;;;17.00;76.00;;;;;;4981692;28;19953;-87
2023/05/19 11:09:32;;;;;;;;;;;17.10;75.80;;;;;;4981953;28;19926;-85
2023/05/19 11:12:02;;;;;;;;;;;17.00;76.30;;;;;;4966123;28;19926;-85
2023/05/19 11:14:28;;;;;;;;;;;17.00;75.60;;;;;;4997820;28;19929;-85
2023/05/19 11:16:57;;;;;;;;;;;17.10;77.40;;;;;;4965094;28;20381;-85
2023/05/19 11:19:26;;;;;;;;;;;17.70;75.50;;;;;;4997139;28;20386;-86
2023/05/19 11:21:59;;;;;;;;;;;17.20;76.00;;;;;;4981899;28;19926;-85
2023/05/19 11:24:44;;;;;;;;;;;17.30;76.10;;;;;;4998102;28;19932;-86
2023/05/19 11:27:20;;;;;;;;;;;17.60;79.40;;;;;;4997451;28;19937;-86
2023/05/19 11:29:52;;;;;;;;;;;17.50;76.30;;;;;;4997561;28;19936;-86
2023/05/19 11:32:19;;;;;;;;;;;17.50;76.80;;;;;;4966413;28;19977;-86
2023/05/19 11:34:47;;;;;;;;;;;17.60;79.80;;;;;;4982164;28;20326;-86
2023/05/19 11:37:12;;;;;;;;;;;17.50;80.10;;;;;;4965348;28;19926;-86
2023/05/19 11:39:38;;;;;;;;;;;17.70;77.20;;;;;;4997767;28;19932;-86
2023/05/19 11:42:04;;;;;;;;;;;17.60;76.40;;;;;;4965552;28;19926;-86
2023/05/19 11:44:30;;;;;;;;;;;17.50;80.10;;;;;;4980876;28;19932;-85
2023/05/19 11:46:57;;;;;;;;;;;18.40;78.30;;;;;;4997754;28;20338;-86
2023/05/19 11:49:29;;;;;;;;;;;17.60;75.30;;;;;;4997140;28;19978;-88
2023/05/19 11:52:01;;;;;;;;;;;17.90;78.90;;;;;;4982337;28;19948;-85
2023/05/19 11:54:36;;;;;;;;;;;17.90;77.90;;;;;;4997534;28;19926;-85
2023/05/19 11:57:02;;;;;;;;;;;17.70;76.50;;;;;;4998054;28;20301;-85
2023/05/19 11:59:29;;;;;;;;;;;17.70;77.00;;;;;;4964622;28;20370;-86
2023/05/19 12:02:16;;;;;;;;;;;17.70;78.20;;;;;;4980954;28;19936;-86
2023/05/19 12:04:41;;;;;;;;;;;16.20;80.00;;;;;;4980257;28;19975;-85
2023/05/19 12:07:07;;;;;;;;;;;17.80;80.30;;;;;;4980389;28;19929;-87
2023/05/19 12:09:33;;;;;;;;;;;18.10;80.60;;;;;;4980278;28;19984;-85
2023/05/19 12:11:59;;;;;;;;;;;18.10;80.40;;;;;;4996825;28;19925;-86
2023/05/19 12:14:25;;;;;;;;;;;18.20;76.10;;;;;;4980843;28;19929;-85
2023/05/19 12:16:51;;;;;;;;;;;18.20;78.90;;;;;;4962686;28;20313;-86
2023/05/19 12:19:17;;;;;;;;;;;18.30;77.20;;;;;;4977751;28;19980;-86
2023/05/19 12:21:42;;;;;;;;;;;18.30;77.90;;;;;;4961736;28;19926;-86
2023/05/19 12:24:08;;;;;;;;;;;18.80;77.80;;;;;;4961785;28;20008;-85
2023/05/19 12:26:35;;;;;;;;;;;18.30;82.90;;;;;;4961503;28;19930;-85
2023/05/19 12:29:04;;;;;;;;;;;18.30;76.10;;;;;;4977505;28;19926;-86
2023/05/19 12:31:29;;;;;;;;;;;18.10;77.60;;;;;;4961194;28;19981;-85
2023/05/19 12:33:55;;;;;;;;;;;18.20;81.40;;;;;;4962198;28;19976;-86
2023/05/19 12:36:22;;;;;;;;;;;18.30;79.20;;;;;;4961270;28;19952;-85
2023/05/19 12:38:52;;;;;;;;;;;18.50;78.50;;;;;;4961437;28;19925;-86
2023/05/19 12:41:21;;;;;;;;;;;18.30;79.60;;;;;;4977391;28;19969;-85
2023/05/19 12:43:47;;;;;;;;;;;18.50;77.50;;;;;;4977320;28;19996;-85
2023/05/19 12:46:14;;;;;;;;;;;18.40;80.50;;;;;;4977653;28;19926;-84
2023/05/19 12:48:44;;;;;;;;;;;18.30;78.20;;;;;;4977445;28;20294;-85
2023/05/19 12:51:10;;;;;;;;;;;18.30;78.40;;;;;;4977066;28;19932;-87
2023/05/19 12:53:36;;;;;;;;;;;18.40;81.70;;;;;;4961652;28;19951;-87
2023/05/19 12:56:09;;;;;;;;;;;18.80;80.00;;;;;;4951776;28;19965;-87
2023/05/19 12:58:36;;;;;;;;;;;18.70;78.20;;;;;;4962881;28;20314;-85
2023/05/19 13:01:01;;;;;;;;;;;18.80;77.30;;;;;;4976604;28;20021;-85
2023/05/19 13:03:27;;;;;;;;;;;18.60;78.90;;;;;;4961163;28;20024;-85
2023/05/19 13:05:53;;;;;;;;;;;17.30;78.40;;;;;;4976973;28;19926;-85
2023/05/19 13:08:20;;;;;;;;;;;18.70;81.60;;;;;;4961070;28;19926;-86
2023/05/19 13:10:46;;;;;;;;;;;18.80;78.30;;;;;;4978828;28;19936;-85
2023/05/19 13:13:12;;;;;;;;;;;19.10;78.50;;;;;;4980774;28;20024;-85
2023/05/19 13:15:39;;;;;;;;;;;16.70;76.80;;;;;;4964044;28;19926;-84
2023/05/19 13:18:07;;;;;;;;;;;18.60;77.40;;;;;;4964487;28;19981;-86
2023/05/19 13:20:35;;;;;;;;;;;17.70;79.60;;;;;;4980534;28;19961;-90
2023/05/19 13:23:02;;;;;;;;;;;19.00;80.30;;;;;;4965736;28;19926;-88
2023/05/19 13:25:27;;;;;;;;;;;18.80;80.60;;;;;;4964832;28;19934;-86
2023/05/19 13:27:53;;;;;;;;;;;18.60;82.40;;;;;;4980708;28;20442;-88
2023/05/19 13:30:19;;;;;;;;;;;19.00;83.40;;;;;;4964386;28;20285;-87
2023/05/19 13:32:45;;;;;;;;;;;18.50;78.90;;;;;;4964574;28;19929;-87
2023/05/19 13:35:12;;;;;;;;;;;18.60;81.40;;;;;;4980334;28;20505;-87
2023/05/19 13:37:38;;;;;;;;;;;18.80;78.60;;;;;;4964110;28;19980;-87
2023/05/19 13:40:04;;;;;;;;;;;19.00;79.10;;;;;;4964366;28;20381;-86
2023/05/19 13:42:36;;;;;;;;;;;19.30;76.20;;;;;;4964638;28;19986;-88
2023/05/19 13:45:05;;;;;;;;;;;18.90;75.20;;;;;;4963940;28;19925;-88
2023/05/19 13:47:30;;;;;;;;;;;19.30;78.90;;;;;;4964073;28;20282;-87
2023/05/19 13:50:05;;;;;;;;;;;18.90;82.00;;;;;;4979574;28;19926;-89
2023/05/19 13:52:31;;;;;;;;;;;18.90;78.80;;;;;;4963893;28;20413;-90
2023/05/19 13:55:30;;;;;;;;;;;;;;;;;;;;;
2023/05/19 13:58:09;;;;;;;;;;;19.40;77.10;;;;;;4980078;28;20029;-91
2023/05/19 14:00:35;;;;;;;;;;;19.20;79.50;;;;;;4963603;28;19929;-88
2023/05/19 14:03:10;;;;;;;;;;;19.00;80.60;;;;;;4963312;28;19980;-87
2023/05/19 14:05:38;;;;;;;;;;;19.00;82.10;;;;;;4963935;28;19930;-88
2023/05/19 14:08:04;;;;;;;;;;;19.00;82.10;;;;;;4963529;28;19926;-87
2023/05/19 14:10:30;;;;;;;;;;;19.00;83.90;;;;;;4979009;28;19925;-90
2023/05/19 14:12:58;;;;;;;;;;;19.50;85.80;;;;;;4963094;28;20373;-87
2023/05/19 14:15:27;;;;;;;;;;;19.30;81.00;;;;;;4985955;28;19929;-86
2023/05/19 14:17:57;;;;;;;;;;;17.30;82.80;;;;;;4982514;28;19925;-88
2023/05/19 14:20:23;;;;;;;;;;;18.90;82.90;;;;;;4983380;28;20254;-87
2023/05/19 14:22:51;;;;;;;;;;;18.90;83.60;;;;;;4984103;28;19925;-87
2023/05/19 14:25:17;;;;;;;;;;;19.20;84.10;;;;;;4999651;28;19925;-88
2023/05/19 14:27:43;;;;;;;;;;;18.80;83.90;;;;;;4982879;28;19932;-88